TimeCST,TemperatureF,Dew PointF,Humidity,Sea Level PressureIn,VisibilityMPH,Wind Direction,Wind SpeedMPH,Gust SpeedMPH,PrecipitationIn,Events,Conditions,WindDirDegrees,DateUTC
12:15 AM,12.2,8.6,85,30.26,10.0,Calm,Calm,-,N/A,,Clear,0,2013-01-02 06:15:00
12:35 AM,10.4,6.8,85,30.26,10.0,Calm,Calm,-,N/A,,Clear,0,2013-01-02 06:35:00
12:55 AM,10.4,6.8,85,30.26,10.0,Calm,Calm,-,N/A,,Clear,0,2013-01-02 06:55:00
1:15 AM,10.4,6.8,85,30.25,10.0,Calm,Calm,-,N/A,,Clear,0,2013-01-02 07:15:00
1:35 AM,8.6,5.0,85,30.26,10.0,Calm,Calm,-,N/A,,Clear,0,2013-01-02 07:35:00
1:55 AM,8.6,5.0,85,30.27,9.0,Calm,Calm,-,N/A,,Clear,0,2013-01-02 07:55:00
2:15 AM,8.6,6.8,92,30.27,9.0,Calm,Calm,-,N/A,,Clear,0,2013-01-02 08:15:00
2:35 AM,10.4,10.4,100,30.27,9.0,Calm,Calm,-,N/A,,Clear,0,2013-01-02 08:35:00
2:55 AM,10.4,6.8,85,30.27,10.0,Calm,Calm,-,N/A,,Clear,0,2013-01-02 08:55:00
3:15 AM,10.4,5.0,79,30.27,10.0,Calm,Calm,-,N/A,,Clear,0,2013-01-02 09:15:00
3:35 AM,10.4,6.8,85,30.28,10.0,Calm,Calm,-,N/A,,Clear,0,2013-01-02 09:35:00
3:55 AM,10.4,5.0,79,30.26,10.0,Calm,Calm,-,N/A,,Clear,0,2013-01-02 09:55:00
4:15 AM,8.6,3.2,79,30.26,10.0,Calm,Calm,-,N/A,,Clear,0,2013-01-02 10:15:00
4:35 AM,8.6,3.2,79,30.26,10.0,Calm,Calm,-,N/A,,Clear,0,2013-01-02 10:35:00
4:55 AM,8.6,3.2,79,30.24,10.0,Calm,Calm,-,N/A,,Clear,0,2013-01-02 10:55:00
5:15 AM,8.6,5.0,85,30.25,10.0,Calm,Calm,-,N/A,,Clear,0,2013-01-02 11:15:00
5:35 AM,6.8,3.2,85,30.25,10.0,Calm,Calm,-,N/A,,Clear,0,2013-01-02 11:35:00
5:55 AM,6.8,3.2,85,30.26,10.0,Calm,Calm,-,N/A,,Clear,0,2013-01-02 11:55:00
6:15 AM,8.6,3.2,79,30.26,10.0,Calm,Calm,-,N/A,,Clear,0,2013-01-02 12:15:00
6:35 AM,6.8,3.2,85,30.25,10.0,South,3.5,-,N/A,,Clear,170,2013-01-02 12:35:00
6:55 AM,6.8,3.2,85,30.25,10.0,SE,3.5,-,N/A,,Clear,140,2013-01-02 12:55:00
7:15 AM,8.6,6.8,92,30.26,9.0,Calm,Calm,-,N/A,,Clear,0,2013-01-02 13:15:00
7:35 AM,8.6,3.2,79,30.25,9.0,Calm,Calm,-,N/A,,Clear,0,2013-01-02 13:35:00
7:55 AM,8.6,5.0,85,30.26,10.0,Calm,Calm,-,N/A,,Clear,0,2013-01-02 13:55:00
8:15 AM,10.4,3.2,73,30.25,9.0,Calm,Calm,-,N/A,,Clear,0,2013-01-02 14:15:00
8:35 AM,10.4,6.8,85,30.25,9.0,Calm,Calm,-,N/A,,Clear,0,2013-01-02 14:35:00
8:55 AM,12.2,8.6,85,30.25,9.0,SSE,4.6,-,N/A,,Clear,160,2013-01-02 14:55:00
9:15 AM,15.8,10.4,79,30.25,9.0,Calm,Calm,-,N/A,,Clear,0,2013-01-02 15:15:00
9:35 AM,17.6,12.2,79,30.25,9.0,South,4.6,-,N/A,,Clear,190,2013-01-02 15:35:00
9:55 AM,19.4,12.2,74,30.25,10.0,South,3.5,-,N/A,,Clear,190,2013-01-02 15:55:00
10:15 AM,21.2,14.0,74,30.25,10.0,SSW,3.5,-,N/A,,Clear,200,2013-01-02 16:15:00
10:35 AM,24.8,15.8,69,30.25,10.0,South,4.6,-,N/A,,Clear,180,2013-01-02 16:35:00
10:55 AM,24.8,15.8,69,30.25,10.0,SSW,5.8,-,N/A,,Clear,210,2013-01-02 16:55:00
11:15 AM,28.4,12.2,51,30.24,10.0,SSW,5.8,-,N/A,,Clear,210,2013-01-02 17:15:00
11:35 AM,28.4,12.2,51,30.23,10.0,SSW,8.1,-,N/A,,Clear,210,2013-01-02 17:35:00
11:55 AM,30.2,12.2,47,30.22,10.0,SW,5.8,-,N/A,,Clear,220,2013-01-02 17:55:00
12:15 PM,30.2,12.2,47,30.21,10.0,SW,5.8,-,N/A,,Clear,220,2013-01-02 18:15:00
12:35 PM,32.0,12.2,44,30.21,10.0,SW,5.8,-,N/A,,Clear,230,2013-01-02 18:35:00
12:55 PM,33.8,12.2,41,30.20,10.0,SW,5.8,-,N/A,,Clear,220,2013-01-02 18:55:00
1:15 PM,33.8,12.2,41,30.19,10.0,SW,6.9,-,N/A,,Clear,220,2013-01-02 19:15:00
1:35 PM,35.6,12.2,38,30.19,10.0,SSW,10.4,-,N/A,,Clear,200,2013-01-02 19:35:00
1:55 PM,35.6,12.2,38,30.18,10.0,SSW,6.9,-,N/A,,Clear,200,2013-01-02 19:55:00
2:15 PM,35.6,12.2,38,30.17,10.0,SSW,8.1,-,N/A,,Clear,210,2013-01-02 20:15:00
2:35 PM,35.6,12.2,38,30.17,10.0,SSW,9.2,-,N/A,,Clear,210,2013-01-02 20:35:00
2:55 PM,35.6,12.2,38,30.17,10.0,SSW,6.9,-,N/A,,Clear,210,2013-01-02 20:55:00
3:15 PM,37.4,14.0,38,30.17,10.0,South,5.8,-,N/A,,Clear,190,2013-01-02 21:15:00
3:35 PM,37.4,12.2,36,30.18,10.0,SSW,5.8,-,N/A,,Clear,200,2013-01-02 21:35:00
3:55 PM,37.4,12.2,36,30.18,10.0,SSW,6.9,-,N/A,,Clear,210,2013-01-02 21:55:00
4:15 PM,35.6,12.2,38,30.18,10.0,SSW,6.9,-,N/A,,Clear,200,2013-01-02 22:15:00
4:35 PM,35.6,12.2,38,30.18,10.0,SSW,6.9,-,N/A,,Clear,210,2013-01-02 22:35:00
4:55 PM,33.8,12.2,41,30.18,10.0,SW,5.8,-,N/A,,Clear,230,2013-01-02 22:55:00
5:15 PM,33.8,10.4,38,30.19,10.0,WSW,3.5,-,N/A,,Clear,240,2013-01-02 23:15:00
5:35 PM,30.2,12.2,47,30.19,10.0,SSW,3.5,-,N/A,,Clear,210,2013-01-02 23:35:00
5:55 PM,30.2,12.2,47,30.19,10.0,Calm,Calm,-,N/A,,Clear,0,2013-01-02 23:55:00
6:15 PM,28.4,12.2,51,30.20,10.0,Calm,Calm,-,N/A,,Clear,0,2013-01-03 00:15:00
6:35 PM,28.4,12.2,51,30.20,10.0,Calm,Calm,-,N/A,,Clear,0,2013-01-03 00:35:00
6:55 PM,28.4,12.2,51,30.21,10.0,SW,3.5,-,N/A,,Clear,220,2013-01-03 00:55:00
7:15 PM,26.6,12.2,55,30.21,10.0,SW,5.8,-,N/A,,Clear,220,2013-01-03 01:15:00
7:55 PM,28.4,12.2,51,30.22,10.0,SW,6.9,-,N/A,,Clear,230,2013-01-03 01:55:00
8:15 PM,26.6,10.4,51,30.22,10.0,SW,5.8,-,N/A,,Clear,220,2013-01-03 02:15:00
8:35 PM,26.6,12.2,55,30.22,10.0,Calm,Calm,-,N/A,,Clear,0,2013-01-03 02:35:00
8:55 PM,26.6,12.2,55,30.23,10.0,SW,4.6,-,N/A,,Clear,220,2013-01-03 02:55:00
9:15 PM,26.6,12.2,55,30.24,10.0,South,3.5,-,N/A,,Clear,190,2013-01-03 03:15:00
9:35 PM,24.8,12.2,59,30.24,10.0,Calm,Calm,-,N/A,,Scattered Clouds,0,2013-01-03 03:35:00
9:55 PM,23.0,14.0,68,30.25,10.0,Calm,Calm,-,N/A,,Overcast,0,2013-01-03 03:55:00
10:15 PM,24.8,15.8,69,30.25,10.0,Calm,Calm,-,N/A,,Overcast,0,2013-01-03 04:15:00
10:35 PM,26.6,15.8,64,30.25,10.0,Calm,Calm,-,N/A,,Overcast,0,2013-01-03 04:35:00
10:55 PM,26.6,15.8,64,30.25,10.0,Calm,Calm,-,N/A,,Overcast,0,2013-01-03 04:55:00
11:15 PM,24.8,17.6,74,30.25,10.0,Calm,Calm,-,N/A,,Overcast,0,2013-01-03 05:15:00
11:35 PM,24.8,17.6,74,30.26,10.0,Calm,Calm,-,N/A,,Mostly Cloudy,0,2013-01-03 05:35:00
11:55 PM,24.8,15.8,69,30.26,10.0,SSW,4.6,-,N/A,,Mostly Cloudy,210,2013-01-03 05:55:00